createdAt,value
2023-02-06T00:02:13.737Z,1.77
2023-02-06T00:04:40.376Z,2.03
2023-02-06T00:07:07.052Z,2.05
2023-02-06T00:09:33.678Z,2.42
2023-02-06T00:12:00.315Z,2.63
2023-02-06T00:14:27.172Z,2.28
2023-02-06T00:16:53.904Z,2.22
2023-02-06T00:19:20.719Z,2.10
2023-02-06T00:21:47.273Z,2.05
2023-02-06T00:24:14.022Z,2.15
2023-02-06T00:26:40.618Z,2.00
2023-02-06T00:29:07.490Z,1.92
2023-02-06T00:31:34.315Z,2.25
2023-02-06T00:34:01.159Z,2.00
2023-02-06T00:36:27.758Z,1.92
2023-02-06T00:38:54.455Z,2.38
2023-02-06T00:41:21.509Z,2.28
2023-02-06T00:43:51.144Z,1.98
2023-02-06T00:46:17.866Z,2.20
2023-02-06T00:48:44.533Z,2.17
2023-02-06T00:51:11.345Z,1.95
2023-02-06T00:53:38.546Z,2.17
2023-02-06T00:56:05.546Z,2.13
2023-02-06T00:58:32.620Z,2.30
2023-02-06T01:00:59.264Z,2.30
2023-02-06T01:03:26.037Z,2.10
2023-02-06T01:05:52.723Z,2.15
2023-02-06T01:08:19.388Z,2.10
2023-02-06T01:10:46.403Z,2.03
2023-02-06T01:13:13.286Z,1.80
2023-02-06T01:15:41.381Z,2.05
2023-02-06T01:18:08.279Z,2.33
2023-02-06T01:20:35.120Z,1.83
2023-02-06T01:23:04.165Z,1.70
2023-02-06T01:25:31.730Z,2.05
2023-02-06T01:27:58.668Z,1.90
2023-02-06T01:30:25.289Z,2.20
2023-02-06T01:32:51.969Z,1.70
2023-02-06T01:35:18.762Z,2.13
2023-02-06T01:37:45.473Z,1.77
2023-02-06T01:40:15.280Z,1.88
2023-02-06T01:42:42.929Z,1.92
2023-02-06T01:45:21.662Z,1.92
2023-02-06T01:47:50.104Z,1.98
2023-02-06T01:50:18.583Z,1.85
2023-02-06T01:52:45.286Z,2.28
2023-02-06T01:55:11.921Z,1.95
2023-02-06T01:57:40.220Z,1.70
2023-02-06T02:00:09.739Z,2.03
2023-02-06T02:02:44.097Z,1.70
2023-02-06T02:05:12.646Z,2.00
2023-02-06T02:07:49.967Z,2.23
2023-02-06T02:10:16.967Z,2.03
2023-02-06T02:12:43.854Z,1.75
2023-02-06T02:15:10.560Z,1.45
2023-02-06T02:17:59.702Z,1.87
2023-02-06T02:20:58.220Z,1.95
2023-02-06T02:23:49.478Z,1.60
2023-02-06T02:26:19.019Z,1.90
2023-02-06T02:28:50.613Z,2.35
2023-02-06T02:31:44.288Z,1.50
2023-02-06T02:34:17.194Z,1.70
2023-02-06T02:36:51.562Z,1.90
2023-02-06T02:39:32.976Z,2.00
2023-02-06T02:42:10.933Z,1.90
2023-02-06T02:44:47.883Z,1.83
2023-02-06T02:47:18.637Z,1.90
2023-02-06T02:49:46.427Z,1.80
2023-02-06T02:52:16.860Z,1.98
2023-02-06T02:54:43.581Z,2.00
2023-02-06T02:57:22.740Z,1.50
2023-02-06T02:59:51.940Z,1.75
2023-02-06T03:02:34.772Z,1.58
2023-02-06T03:05:06.128Z,2.00
2023-02-06T03:07:35.269Z,1.77
2023-02-06T03:10:14.039Z,1.75
2023-02-06T03:13:17.523Z,1.88
2023-02-06T03:16:07.936Z,1.77
2023-02-06T03:18:41.415Z,1.50
2023-02-06T03:21:13.754Z,1.60
2023-02-06T03:23:43.072Z,1.60
2023-02-06T03:28:44.809Z,1.90
2023-02-06T03:31:15.524Z,1.95
2023-02-06T03:33:59.102Z,1.77
2023-02-06T03:36:25.950Z,2.03
2023-02-06T03:38:53.894Z,2.08
2023-02-06T03:41:25.870Z,1.80
2023-02-06T03:43:54.105Z,2.30
2023-02-06T03:46:21.792Z,2.17
2023-02-06T03:48:54.104Z,2.00
2023-02-06T03:51:52.993Z,1.70
2023-02-06T03:54:23.720Z,1.85
2023-02-06T03:56:58.812Z,2.10
2023-02-06T03:59:26.255Z,2.10
2023-02-06T04:01:58.678Z,1.80
2023-02-06T04:04:38.124Z,1.77
2023-02-06T04:09:40.318Z,1.80
2023-02-06T04:12:07.600Z,1.90
2023-02-06T04:14:36.729Z,1.75
2023-02-06T04:17:05.018Z,2.50
2023-02-06T04:19:32.228Z,2.38
2023-02-06T04:21:59.047Z,1.90
2023-02-06T04:24:25.910Z,2.40
2023-02-06T04:26:52.782Z,2.17
2023-02-06T04:29:19.623Z,2.13
2023-02-06T04:31:46.407Z,2.35
2023-02-06T04:34:13.424Z,2.40
2023-02-06T04:36:40.393Z,2.00
2023-02-06T04:39:07.952Z,2.17
2023-02-06T04:41:34.890Z,1.88
2023-02-06T04:44:01.734Z,2.47
2023-02-06T04:46:28.474Z,2.15
2023-02-06T04:48:55.139Z,2.20
2023-02-06T04:51:21.817Z,2.53
2023-02-06T04:53:48.374Z,2.05
2023-02-06T04:56:15.053Z,2.10
2023-02-06T04:58:41.810Z,2.00
2023-02-06T05:01:08.495Z,1.77
2023-02-06T05:03:35.239Z,2.35
2023-02-06T05:06:04.864Z,1.83
2023-02-06T05:08:31.749Z,2.15
2023-02-06T05:10:58.518Z,2.60
2023-02-06T05:13:25.890Z,2.25
2023-02-06T05:15:52.776Z,2.47
2023-02-06T05:18:19.811Z,2.60
2023-02-06T05:20:46.911Z,2.33
2023-02-06T05:23:13.737Z,2.03
2023-02-06T05:25:42.264Z,2.40
2023-02-06T05:28:09.141Z,2.55
2023-02-06T05:30:36.586Z,2.65
2023-02-06T05:33:03.230Z,2.30
2023-02-06T05:35:29.953Z,2.38
2023-02-06T05:37:57.404Z,2.72
2023-02-06T05:40:24.601Z,2.10
2023-02-06T05:42:51.283Z,2.78
2023-02-06T05:45:18.269Z,2.45
2023-02-06T05:47:44.891Z,2.22
2023-02-06T05:50:11.821Z,2.30
2023-02-06T05:52:38.630Z,2.28
2023-02-06T05:55:05.818Z,2.28
2023-02-06T05:57:32.879Z,2.75
2023-02-06T05:59:59.634Z,2.15
2023-02-06T06:02:29.204Z,2.35
2023-02-06T06:04:55.860Z,2.55
2023-02-06T06:07:22.624Z,2.65
2023-02-06T06:09:49.371Z,2.58
2023-02-06T06:12:16.037Z,2.55
2023-02-06T06:14:42.812Z,2.50
2023-02-06T06:17:09.763Z,2.88
2023-02-06T06:19:36.651Z,2.65
2023-02-06T06:22:03.559Z,2.58
2023-02-06T06:24:30.403Z,2.80
2023-02-06T06:26:58.900Z,2.75
2023-02-06T06:29:26.432Z,2.40
2023-02-06T06:31:53.383Z,2.45
2023-02-06T06:34:20.198Z,2.97
2023-02-06T06:36:46.868Z,2.80
2023-02-06T06:39:13.553Z,2.88
2023-02-06T06:41:40.215Z,2.70
2023-02-06T06:44:06.873Z,3.10
2023-02-06T06:46:33.927Z,3.33
2023-02-06T06:49:01.534Z,2.53
2023-02-06T06:51:30.003Z,2.70
2023-02-06T06:53:57.331Z,3.25
2023-02-06T06:56:24.420Z,3.40
2023-02-06T06:58:51.053Z,2.85
2023-02-06T07:01:19.074Z,2.95
2023-02-06T07:03:48.122Z,2.80
2023-02-06T07:06:15.373Z,3.10
2023-02-06T07:08:42.241Z,3.10
2023-02-06T07:11:16.944Z,3.70
2023-02-06T07:13:43.871Z,3.33
2023-02-06T07:16:11.388Z,3.45
2023-02-06T07:18:39.917Z,3.53
2023-02-06T07:21:08.693Z,3.63
2023-02-06T07:23:38.801Z,3.42
2023-02-06T07:26:05.743Z,3.17
2023-02-06T07:28:33.265Z,3.20
2023-02-06T07:31:05.373Z,3.45
2023-02-06T07:33:32.777Z,3.83
2023-02-06T07:36:01.164Z,3.53
2023-02-06T07:41:00.044Z,3.10
2023-02-06T07:43:28.781Z,3.88
2023-02-06T07:46:00.129Z,3.60
2023-02-06T07:48:27.590Z,3.88
2023-02-06T07:50:54.690Z,3.42
2023-02-06T07:53:21.680Z,3.50
2023-02-06T07:55:48.900Z,3.35
2023-02-06T07:58:15.629Z,3.40
2023-02-06T08:00:42.874Z,3.55
2023-02-06T08:03:10.348Z,3.78
2023-02-06T08:05:39.481Z,3.72
2023-02-06T08:08:07.221Z,3.72
2023-02-06T08:10:33.945Z,4.53
2023-02-06T08:13:01.035Z,3.58
2023-02-06T08:15:27.757Z,3.83
2023-02-06T08:17:54.487Z,3.63
2023-02-06T08:20:21.119Z,4.30
2023-02-06T08:22:47.721Z,4.30
2023-02-06T08:25:14.326Z,3.50
2023-02-06T08:27:41.013Z,3.60
2023-02-06T08:30:09.689Z,4.30
2023-02-06T08:32:36.488Z,3.77
2023-02-06T08:35:03.307Z,3.72
2023-02-06T08:37:32.183Z,3.67
2023-02-06T08:39:58.805Z,4.15
2023-02-06T08:42:25.520Z,4.30
2023-02-06T08:44:53.705Z,4.05
2023-02-06T08:47:20.455Z,4.15
2023-02-06T08:49:50.630Z,4.40
2023-02-06T08:52:17.933Z,4.32
2023-02-06T08:54:44.675Z,4.50
2023-02-06T08:57:12.971Z,4.28
2023-02-06T08:59:39.813Z,4.20
2023-02-06T09:02:08.555Z,3.97
2023-02-06T09:04:37.743Z,4.55
2023-02-06T09:07:04.814Z,4.28
2023-02-06T09:09:31.579Z,4.57
2023-02-06T09:12:03.239Z,4.55
2023-02-06T09:14:30.425Z,4.47
2023-02-06T09:16:58.195Z,4.35
2023-02-06T09:19:26.148Z,4.30
2023-02-06T09:21:53.179Z,5.10
2023-02-06T09:24:20.203Z,4.50
2023-02-06T09:26:58.991Z,4.07
2023-02-06T09:29:31.216Z,4.10
2023-02-06T09:31:58.417Z,4.60
2023-02-06T09:34:26.128Z,4.15
2023-02-06T09:36:57.706Z,4.53
2023-02-06T09:39:25.166Z,4.18
2023-02-06T09:41:53.443Z,4.53
2023-02-06T09:44:28.617Z,4.43
2023-02-06T09:47:05.125Z,4.32
2023-02-06T09:49:44.598Z,4.15
2023-02-06T09:52:34.414Z,4.45
2023-02-06T09:55:38.503Z,4.45
2023-02-06T09:58:35.400Z,4.15
2023-02-06T10:01:20.507Z,4.85
2023-02-06T10:04:30.960Z,4.45
2023-02-06T10:07:22.447Z,4.15
2023-02-06T10:10:19.148Z,4.07
2023-02-06T10:13:01.986Z,4.35
2023-02-06T10:15:51.972Z,4.53
2023-02-06T10:18:41.461Z,4.88
2023-02-06T10:21:23.807Z,4.72
2023-02-06T10:24:19.139Z,4.63
2023-02-06T10:26:48.125Z,4.68
2023-02-06T10:29:23.611Z,4.70
2023-02-06T10:32:21.034Z,5.10
2023-02-06T10:35:11.949Z,4.20
2023-02-06T10:37:53.624Z,4.00
2023-02-06T10:40:48.333Z,4.10
2023-02-06T10:43:25.262Z,4.20
2023-02-06T10:46:04.066Z,4.43
2023-02-06T10:48:39.146Z,4.20
2023-02-06T10:51:22.047Z,4.43
2023-02-06T10:54:00.037Z,4.63
2023-02-06T10:56:30.783Z,4.50
2023-02-06T10:59:05.484Z,4.40
2023-02-06T11:01:37.986Z,4.35
2023-02-06T11:04:16.074Z,5.10
2023-02-06T11:06:43.344Z,4.90
2023-02-06T11:09:10.693Z,4.43
2023-02-06T11:11:40.679Z,4.53
2023-02-06T11:14:32.004Z,4.45
2023-02-06T11:17:02.449Z,5.00
2023-02-06T11:19:34.742Z,4.40
2023-02-06T11:22:07.351Z,4.30
2023-02-06T11:24:35.471Z,4.85
2023-02-06T11:27:12.120Z,4.72
2023-02-06T11:29:47.244Z,5.55
2023-02-06T11:32:37.830Z,4.55
2023-02-06T11:35:23.060Z,4.38
2023-02-06T11:37:54.126Z,4.97
2023-02-06T11:40:25.142Z,4.93
2023-02-06T11:43:08.116Z,4.95
2023-02-06T11:45:35.601Z,5.00
2023-02-06T11:48:02.653Z,4.70
2023-02-06T11:50:35.220Z,5.00
2023-02-06T11:53:18.714Z,4.93
2023-02-06T11:55:57.384Z,4.60
2023-02-06T11:58:27.322Z,4.47
2023-02-06T12:00:57.006Z,4.20
2023-02-06T12:03:43.028Z,4.28
2023-02-06T12:06:21.706Z,4.32
2023-02-06T12:08:51.118Z,4.83
2023-02-06T12:11:29.522Z,4.95
2023-02-06T12:14:01.825Z,4.20
2023-02-06T12:16:30.166Z,4.57
2023-02-06T12:18:57.927Z,4.80
2023-02-06T12:21:28.624Z,4.50
2023-02-06T12:23:59.533Z,4.80
2023-02-06T12:26:29.809Z,4.43
2023-02-06T12:28:57.408Z,4.40
2023-02-06T12:31:41.886Z,4.90
2023-02-06T12:34:19.796Z,4.53
2023-02-06T12:37:10.687Z,4.43
2023-02-06T12:39:37.538Z,4.43
2023-02-06T12:42:38.109Z,4.43
2023-02-06T12:45:07.704Z,4.60
2023-02-06T12:47:43.400Z,4.10
2023-02-06T12:50:15.898Z,4.43
2023-02-06T12:52:51.587Z,4.50
2023-02-06T12:55:42.533Z,4.60
2023-02-06T12:58:32.188Z,4.38
2023-02-06T13:01:31.121Z,4.00
2023-02-06T13:04:20.201Z,4.32
2023-02-06T13:06:53.412Z,4.20
2023-02-06T13:09:50.113Z,4.45
2023-02-06T13:12:28.414Z,3.75
2023-02-06T13:15:00.986Z,4.78
2023-02-06T13:17:42.287Z,3.80
2023-02-06T13:20:10.834Z,4.40
2023-02-06T13:22:39.413Z,3.63
2023-02-06T13:25:25.161Z,4.13
2023-02-06T13:27:53.150Z,3.90
2023-02-06T13:30:28.854Z,3.80
2023-02-06T13:33:16.496Z,4.22
2023-02-06T13:36:01.684Z,3.97
2023-02-06T13:38:37.102Z,3.88
2023-02-06T13:41:15.924Z,4.10
2023-02-06T13:44:15.024Z,4.00
2023-02-06T13:47:15.885Z,3.65
2023-02-06T13:50:17.646Z,3.95
2023-02-06T13:53:01.377Z,3.63
2023-02-06T13:56:05.962Z,3.58
2023-02-06T13:58:43.706Z,3.97
2023-02-06T14:01:14.436Z,3.70
2023-02-06T14:03:47.195Z,3.70
2023-02-06T14:06:43.607Z,3.80
2023-02-06T14:09:16.301Z,3.42
2023-02-06T14:12:36.618Z,3.78
2023-02-06T14:15:03.427Z,3.90
2023-02-06T14:17:32.777Z,3.67
2023-02-06T14:25:34.841Z,3.40
2023-02-06T14:28:15.834Z,3.70
2023-02-06T14:31:03.781Z,3.45
2023-02-06T14:34:00.750Z,3.28
2023-02-06T14:36:33.363Z,3.55
2023-02-06T14:39:21.685Z,4.13
2023-02-06T14:41:48.445Z,3.70
2023-02-06T14:44:22.032Z,3.45
2023-02-06T14:46:48.928Z,4.00
2023-02-06T14:49:20.547Z,3.70
2023-02-06T14:51:51.229Z,3.83
2023-02-06T14:54:36.845Z,3.22
2023-02-06T14:57:06.337Z,4.05
2023-02-06T14:59:33.362Z,3.70
2023-02-06T15:02:13.977Z,3.47
2023-02-06T15:04:47.575Z,3.92
2023-02-06T15:07:32.972Z,3.75
2023-02-06T15:10:15.755Z,3.53
2023-02-06T15:12:50.727Z,3.30
2023-02-06T15:15:21.917Z,3.67
2023-02-06T15:18:03.431Z,3.58
2023-02-06T15:20:40.205Z,3.22
2023-02-06T15:23:23.232Z,3.40
2023-02-06T15:26:02.030Z,3.10
2023-02-06T15:28:32.438Z,4.00
2023-02-06T15:31:01.188Z,3.53
2023-02-06T15:33:34.486Z,3.33
2023-02-06T15:36:03.377Z,3.40
2023-02-06T15:38:33.090Z,2.90
2023-02-06T15:41:06.514Z,3.08
2023-02-06T15:43:34.265Z,3.60
2023-02-06T15:46:03.427Z,3.47
2023-02-06T15:48:48.968Z,3.20
2023-02-06T15:51:27.834Z,2.53
2023-02-06T15:54:19.867Z,3.50
2023-02-06T15:56:56.443Z,3.55
2023-02-06T15:59:25.668Z,3.47
2023-02-06T16:04:28.046Z,3.37
2023-02-06T16:07:13.188Z,3.20
2023-02-06T16:09:48.717Z,3.10
2023-02-06T16:12:17.172Z,3.20
2023-02-06T16:15:02.097Z,3.13
2023-02-06T16:17:35.390Z,3.30
2023-02-06T16:20:04.927Z,3.30
2023-02-06T16:22:40.041Z,3.17
2023-02-06T16:25:31.722Z,3.55
2023-02-06T16:27:59.676Z,2.92
2023-02-06T16:30:26.530Z,3.20
2023-02-06T16:32:55.310Z,3.30
2023-02-06T16:35:23.348Z,3.58
2023-02-06T16:37:51.229Z,3.35
2023-02-06T16:40:18.145Z,3.60
2023-02-06T16:42:47.491Z,3.45
2023-02-06T16:45:24.862Z,3.78
2023-02-06T16:47:52.109Z,3.38
2023-02-06T16:50:19.185Z,3.20
2023-02-06T16:52:55.443Z,3.38
2023-02-06T16:55:25.420Z,3.60
2023-02-06T16:57:56.469Z,3.45
2023-02-06T17:00:26.576Z,3.28
2023-02-06T17:02:54.273Z,3.25
2023-02-06T17:05:24.088Z,3.28
2023-02-06T17:07:51.563Z,3.28
2023-02-06T17:10:20.961Z,3.20
2023-02-06T17:12:48.662Z,3.35
2023-02-06T17:15:17.487Z,3.45
2023-02-06T17:17:44.261Z,3.60
2023-02-06T17:20:38.705Z,3.58
2023-02-06T17:23:06.098Z,3.60
2023-02-06T17:25:33.128Z,3.80
2023-02-06T17:28:00.397Z,3.25
2023-02-06T17:30:27.676Z,3.45
2023-02-06T17:32:54.851Z,3.72
2023-02-06T17:35:21.542Z,3.63
2023-02-06T17:37:49.257Z,3.55
2023-02-06T17:40:31.669Z,3.90
2023-02-06T17:42:59.877Z,3.72
2023-02-06T17:45:27.412Z,3.55
2023-02-06T17:47:54.489Z,3.75
2023-02-06T17:50:23.366Z,3.78
2023-02-06T17:52:52.736Z,3.72
2023-02-06T17:57:46.130Z,3.75
2023-02-06T18:00:15.642Z,3.50
2023-02-06T18:02:42.444Z,3.63
2023-02-06T18:05:09.731Z,4.25
2023-02-06T18:07:40.644Z,3.85
2023-02-06T18:10:08.561Z,3.72
2023-02-06T18:12:35.786Z,4.13
2023-02-06T18:15:03.321Z,4.10
2023-02-06T18:17:31.098Z,3.80
2023-02-06T18:19:57.892Z,3.63
2023-02-06T18:22:24.660Z,3.42
2023-02-06T18:24:51.370Z,3.50
2023-02-06T18:27:19.722Z,3.83
2023-02-06T18:29:50.098Z,3.95
2023-02-06T18:32:18.537Z,3.88
2023-02-06T18:34:45.203Z,4.00
2023-02-06T18:37:12.503Z,3.83
2023-02-06T18:39:39.615Z,3.97
2023-02-06T18:42:25.400Z,3.58
2023-02-06T18:44:52.295Z,4.30
2023-02-06T18:47:19.800Z,4.10
2023-02-06T18:49:47.053Z,3.75
2023-02-06T18:52:14.321Z,3.55
2023-02-06T18:54:40.989Z,3.92
2023-02-06T18:57:07.811Z,4.10
2023-02-06T18:59:35.103Z,3.80
2023-02-06T19:02:02.838Z,4.10
2023-02-06T19:04:29.633Z,3.60
2023-02-06T19:06:56.513Z,3.83
2023-02-06T19:09:23.255Z,4.30
2023-02-06T19:11:49.962Z,3.85
2023-02-06T19:14:19.822Z,3.63
2023-02-06T19:16:48.004Z,4.47
2023-02-06T19:19:14.966Z,3.47
2023-02-06T19:21:43.742Z,3.42
2023-02-06T19:24:13.343Z,3.72
2023-02-06T19:26:41.205Z,3.67
2023-02-06T19:29:08.606Z,3.72
2023-02-06T19:31:39.110Z,4.10
2023-02-06T19:34:06.754Z,3.75
2023-02-06T19:36:34.674Z,3.75
2023-02-06T19:39:04.968Z,4.25
2023-02-06T19:41:33.409Z,4.03
2023-02-06T19:44:07.786Z,4.38
2023-02-06T19:46:35.120Z,4.32
2023-02-06T19:49:02.175Z,3.97
2023-02-06T19:51:31.186Z,3.88
2023-02-06T19:53:59.350Z,4.07
2023-02-06T19:56:34.496Z,3.63
2023-02-06T19:59:03.753Z,3.95
2023-02-06T20:01:31.692Z,3.85
2023-02-06T20:04:00.652Z,4.05
2023-02-06T20:06:29.453Z,3.67
2023-02-06T20:08:57.612Z,4.10
2023-02-06T20:11:24.383Z,4.07
2023-02-06T20:13:55.628Z,3.80
2023-02-06T20:16:26.074Z,4.13
2023-02-06T20:18:53.884Z,4.63
2023-02-06T20:21:34.017Z,3.95
2023-02-06T20:24:02.770Z,3.85
2023-02-06T20:26:33.036Z,4.40
2023-02-06T20:29:00.241Z,4.40
2023-02-06T20:31:27.746Z,3.80
2023-02-06T20:33:54.687Z,4.10
2023-02-06T20:36:24.087Z,4.10
2023-02-06T20:41:20.140Z,4.25
2023-02-06T20:43:48.146Z,3.67
2023-02-06T20:46:17.352Z,4.45
2023-02-06T20:48:45.759Z,3.83
2023-02-06T20:51:14.059Z,3.90
2023-02-06T20:53:41.219Z,3.70
2023-02-06T20:56:12.605Z,4.07
2023-02-06T20:58:39.448Z,4.25
2023-02-06T21:01:32.480Z,4.40
2023-02-06T21:04:05.654Z,3.58
2023-02-06T21:06:34.380Z,4.35
2023-02-06T21:09:01.734Z,3.75
2023-02-06T21:11:30.583Z,4.00
2023-02-06T21:13:59.557Z,4.20
2023-02-06T21:16:28.133Z,4.38
2023-02-06T21:18:57.286Z,3.65
2023-02-06T21:21:27.903Z,3.53
2023-02-06T21:23:58.027Z,3.40
2023-02-06T21:26:25.651Z,3.72
2023-02-06T21:28:52.896Z,4.00
2023-02-06T21:31:25.771Z,3.65
2023-02-06T21:33:52.840Z,3.70
2023-02-06T21:36:37.496Z,3.70
2023-02-06T21:39:04.390Z,3.78
2023-02-06T21:41:32.296Z,4.07
2023-02-06T21:44:00.388Z,3.72
2023-02-06T21:46:29.867Z,3.58
2023-02-06T21:48:56.831Z,3.95
2023-02-06T21:51:23.786Z,3.88
2023-02-06T21:53:50.502Z,4.10
2023-02-06T21:56:22.432Z,4.20
2023-02-06T21:58:49.841Z,3.80
2023-02-06T22:01:20.005Z,4.07
2023-02-06T22:03:47.261Z,3.42
2023-02-06T22:06:15.035Z,3.90
2023-02-06T22:08:44.371Z,4.07
2023-02-06T22:13:39.446Z,4.00
2023-02-06T22:16:07.439Z,4.10
2023-02-06T22:18:34.159Z,3.85
2023-02-06T22:21:15.568Z,3.80
2023-02-06T22:23:43.741Z,3.97
2023-02-06T22:26:13.598Z,3.90
2023-02-06T22:28:40.856Z,3.92
2023-02-06T22:31:16.630Z,4.30
2023-02-06T22:33:44.016Z,4.15
2023-02-06T22:36:13.746Z,4.50
2023-02-06T22:38:42.238Z,4.07
2023-02-06T22:41:12.905Z,3.90
2023-02-06T22:43:39.852Z,3.90
2023-02-06T22:46:07.184Z,3.95
2023-02-06T22:48:34.321Z,3.85
2023-02-06T22:51:09.246Z,4.03
2023-02-06T22:53:38.293Z,4.03
2023-02-06T22:56:27.174Z,4.10
2023-02-06T22:58:55.628Z,3.80
2023-02-06T23:01:24.791Z,4.77
2023-02-06T23:03:53.137Z,3.83
2023-02-06T23:06:23.409Z,4.18
2023-02-06T23:08:50.319Z,4.32
2023-02-06T23:11:17.090Z,4.57
2023-02-06T23:13:43.868Z,4.07
2023-02-06T23:16:11.259Z,4.30
2023-02-06T23:18:38.170Z,4.18
2023-02-06T23:21:12.048Z,4.18
2023-02-06T23:23:40.321Z,4.35
2023-02-06T23:26:10.392Z,4.00
2023-02-06T23:28:38.391Z,4.28
2023-02-06T23:31:06.180Z,3.70
2023-02-06T23:33:33.777Z,4.30
2023-02-06T23:36:20.676Z,4.40
2023-02-06T23:38:48.110Z,4.30
2023-02-06T23:41:17.525Z,4.15
2023-02-06T23:46:12.714Z,4.25
2023-02-06T23:48:40.024Z,4.35
2023-02-06T23:51:07.083Z,4.50
2023-02-06T23:53:34.133Z,5.07
2023-02-06T23:56:00.885Z,3.92
2023-02-06T23:58:27.605Z,4.20
